sensor_id;sensor_type;location;lat;lon;timestamp;P1;durP1;ratioP1;P2;durP2;ratioP2
15130;SDS011;7666;50.920;4.628;2022-10-31T00:00:56;12.60;;;9.20;;
15130;SDS011;7666;50.920;4.628;2022-10-31T00:03:42;13.03;;;8.17;;
15130;SDS011;7666;50.920;4.628;2022-10-31T00:06:28;11.10;;;8.20;;
15130;SDS011;7666;50.920;4.628;2022-10-31T00:09:14;9.93;;;8.40;;
15130;SDS011;7666;50.920;4.628;2022-10-31T00:12:00;11.47;;;9.17;;
15130;SDS011;7666;50.920;4.628;2022-10-31T00:14:46;11.53;;;8.70;;
15130;SDS011;7666;50.920;4.628;2022-10-31T00:17:34;11.50;;;9.27;;
15130;SDS011;7666;50.920;4.628;2022-10-31T00:20:21;11.50;;;9.03;;
15130;SDS011;7666;50.920;4.628;2022-10-31T00:23:07;12.50;;;8.47;;
15130;SDS011;7666;50.920;4.628;2022-10-31T00:25:54;12.80;;;9.17;;
15130;SDS011;7666;50.920;4.628;2022-10-31T00:28:45;10.27;;;8.77;;
15130;SDS011;7666;50.920;4.628;2022-10-31T00:31:31;14.20;;;10.00;;
15130;SDS011;7666;50.920;4.628;2022-10-31T00:34:17;13.63;;;10.23;;
15130;SDS011;7666;50.920;4.628;2022-10-31T00:37:02;12.80;;;9.43;;
15130;SDS011;7666;50.920;4.628;2022-10-31T00:39:48;12.57;;;9.77;;
15130;SDS011;7666;50.920;4.628;2022-10-31T00:42:34;13.77;;;8.93;;
15130;SDS011;7666;50.920;4.628;2022-10-31T00:45:20;9.60;;;7.50;;
15130;SDS011;7666;50.920;4.628;2022-10-31T00:48:06;9.83;;;8.10;;
15130;SDS011;7666;50.920;4.628;2022-10-31T00:50:52;8.80;;;7.33;;
15130;SDS011;7666;50.920;4.628;2022-10-31T00:53:38;10.17;;;7.70;;
15130;SDS011;7666;50.920;4.628;2022-10-31T00:56:24;10.70;;;7.93;;
15130;SDS011;7666;50.920;4.628;2022-10-31T00:59:10;8.43;;;7.23;;
15130;SDS011;7666;50.920;4.628;2022-10-31T01:01:56;9.47;;;7.33;;
15130;SDS011;7666;50.920;4.628;2022-10-31T01:04:42;10.87;;;8.30;;
15130;SDS011;7666;50.920;4.628;2022-10-31T01:07:28;9.87;;;5.97;;
15130;SDS011;7666;50.920;4.628;2022-10-31T01:10:13;7.83;;;5.90;;
15130;SDS011;7666;50.920;4.628;2022-10-31T01:13:00;12.40;;;6.53;;
15130;SDS011;7666;50.920;4.628;2022-10-31T01:15:46;11.83;;;8.40;;
15130;SDS011;7666;50.920;4.628;2022-10-31T01:18:39;8.70;;;7.20;;
15130;SDS011;7666;50.920;4.628;2022-10-31T01:21:27;8.93;;;5.67;;
15130;SDS011;7666;50.920;4.628;2022-10-31T01:24:13;10.10;;;6.40;;
15130;SDS011;7666;50.920;4.628;2022-10-31T01:26:59;9.17;;;6.50;;
15130;SDS011;7666;50.920;4.628;2022-10-31T01:29:45;9.67;;;7.50;;
15130;SDS011;7666;50.920;4.628;2022-10-31T01:32:31;11.40;;;7.40;;
15130;SDS011;7666;50.920;4.628;2022-10-31T01:35:17;9.60;;;7.80;;
15130;SDS011;7666;50.920;4.628;2022-10-31T01:38:03;12.73;;;8.30;;
15130;SDS011;7666;50.920;4.628;2022-10-31T01:40:49;10.13;;;7.40;;
15130;SDS011;7666;50.920;4.628;2022-10-31T01:43:49;12.40;;;7.10;;
15130;SDS011;7666;50.920;4.628;2022-10-31T01:49:38;11.10;;;7.97;;
15130;SDS011;7666;50.920;4.628;2022-10-31T01:52:33;11.67;;;7.23;;
15130;SDS011;7666;50.920;4.628;2022-10-31T01:55:32;8.27;;;7.30;;
15130;SDS011;7666;50.920;4.628;2022-10-31T01:58:23;10.43;;;7.90;;
15130;SDS011;7666;50.920;4.628;2022-10-31T02:01:13;12.80;;;8.30;;
15130;SDS011;7666;50.920;4.628;2022-10-31T02:04:01;10.30;;;7.93;;
15130;SDS011;7666;50.920;4.628;2022-10-31T02:06:48;7.63;;;6.87;;
15130;SDS011;7666;50.920;4.628;2022-10-31T02:09:44;10.60;;;7.77;;
15130;SDS011;7666;50.920;4.628;2022-10-31T02:12:32;9.90;;;7.70;;
15130;SDS011;7666;50.920;4.628;2022-10-31T02:15:21;7.67;;;6.57;;
15130;SDS011;7666;50.920;4.628;2022-10-31T02:18:07;8.60;;;7.13;;
15130;SDS011;7666;50.920;4.628;2022-10-31T02:21:15;10.57;;;7.37;;
15130;SDS011;7666;50.920;4.628;2022-10-31T02:30:21;10.00;;;7.50;;
15130;SDS011;7666;50.920;4.628;2022-10-31T02:33:19;5.03;;;4.60;;
15130;SDS011;7666;50.920;4.628;2022-10-31T02:36:16;13.60;;;5.80;;
15130;SDS011;7666;50.920;4.628;2022-10-31T02:48:00;12.17;;;7.17;;
15130;SDS011;7666;50.920;4.628;2022-10-31T02:50:56;13.33;;;7.53;;
15130;SDS011;7666;50.920;4.628;2022-10-31T02:53:44;8.93;;;5.77;;
15130;SDS011;7666;50.920;4.628;2022-10-31T02:56:30;32.30;;;4.20;;
15130;SDS011;7666;50.920;4.628;2022-10-31T02:59:16;8.30;;;6.20;;
15130;SDS011;7666;50.920;4.628;2022-10-31T03:08:50;9.93;;;7.10;;
15130;SDS011;7666;50.920;4.628;2022-10-31T03:14:51;7.80;;;5.80;;
15130;SDS011;7666;50.920;4.628;2022-10-31T03:17:54;6.70;;;5.80;;
15130;SDS011;7666;50.920;4.628;2022-10-31T03:21:04;5.70;;;5.10;;
15130;SDS011;7666;50.920;4.628;2022-10-31T03:24:00;7.07;;;4.83;;
15130;SDS011;7666;50.920;4.628;2022-10-31T03:26:48;6.70;;;5.57;;
15130;SDS011;7666;50.920;4.628;2022-10-31T03:29:37;6.93;;;6.00;;
15130;SDS011;7666;50.920;4.628;2022-10-31T03:32:26;7.23;;;5.13;;
15130;SDS011;7666;50.920;4.628;2022-10-31T03:35:17;9.60;;;6.07;;
15130;SDS011;7666;50.920;4.628;2022-10-31T03:38:06;6.27;;;5.67;;
15130;SDS011;7666;50.920;4.628;2022-10-31T03:40:53;6.80;;;5.07;;
15130;SDS011;7666;50.920;4.628;2022-10-31T03:43:46;7.70;;;5.43;;
15130;SDS011;7666;50.920;4.628;2022-10-31T03:46:38;7.90;;;5.40;;
15130;SDS011;7666;50.920;4.628;2022-10-31T03:49:25;5.57;;;5.00;;
15130;SDS011;7666;50.920;4.628;2022-10-31T03:55:17;55.33;;;5.47;;
15130;SDS011;7666;50.920;4.628;2022-10-31T04:01:53;7.37;;;5.43;;
15130;SDS011;7666;50.920;4.628;2022-10-31T04:04:44;5.37;;;4.33;;
15130;SDS011;7666;50.920;4.628;2022-10-31T04:07:34;5.60;;;4.47;;
15130;SDS011;7666;50.920;4.628;2022-10-31T04:10:29;5.57;;;4.93;;
15130;SDS011;7666;50.920;4.628;2022-10-31T04:13:16;6.47;;;5.03;;
15130;SDS011;7666;50.920;4.628;2022-10-31T04:16:06;8.10;;;5.37;;
15130;SDS011;7666;50.920;4.628;2022-10-31T04:18:53;9.03;;;5.80;;
15130;SDS011;7666;50.920;4.628;2022-10-31T04:21:40;6.40;;;5.37;;
15130;SDS011;7666;50.920;4.628;2022-10-31T04:24:28;9.20;;;5.80;;
15130;SDS011;7666;50.920;4.628;2022-10-31T04:27:14;6.53;;;5.47;;
15130;SDS011;7666;50.920;4.628;2022-10-31T04:30:00;7.90;;;5.90;;
15130;SDS011;7666;50.920;4.628;2022-10-31T04:32:46;8.00;;;5.63;;
15130;SDS011;7666;50.920;4.628;2022-10-31T04:35:32;9.13;;;5.67;;
15130;SDS011;7666;50.920;4.628;2022-10-31T04:38:18;6.73;;;5.73;;
15130;SDS011;7666;50.920;4.628;2022-10-31T04:41:04;5.97;;;4.53;;
15130;SDS011;7666;50.920;4.628;2022-10-31T04:43:50;20.83;;;4.07;;
15130;SDS011;7666;50.920;4.628;2022-10-31T04:46:36;185.00;;;7.83;;
15130;SDS011;7666;50.920;4.628;2022-10-31T04:49:22;19.77;;;4.40;;
15130;SDS011;7666;50.920;4.628;2022-10-31T04:52:08;48.80;;;6.10;;
15130;SDS011;7666;50.920;4.628;2022-10-31T04:54:54;89.90;;;7.27;;
15130;SDS011;7666;50.920;4.628;2022-10-31T04:57:47;32.73;;;6.80;;
15130;SDS011;7666;50.920;4.628;2022-10-31T05:00:34;15.10;;;4.97;;
15130;SDS011;7666;50.920;4.628;2022-10-31T05:03:20;45.03;;;7.03;;
15130;SDS011;7666;50.920;4.628;2022-10-31T05:06:07;13.10;;;5.90;;
15130;SDS011;7666;50.920;4.628;2022-10-31T05:08:53;12.07;;;6.43;;
15130;SDS011;7666;50.920;4.628;2022-10-31T05:11:39;7.57;;;5.20;;
15130;SDS011;7666;50.920;4.628;2022-10-31T05:14:25;11.63;;;7.87;;
15130;SDS011;7666;50.920;4.628;2022-10-31T05:17:10;10.30;;;8.03;;
15130;SDS011;7666;50.920;4.628;2022-10-31T05:19:56;27.33;;;24.40;;
15130;SDS011;7666;50.920;4.628;2022-10-31T05:22:43;12.90;;;9.93;;
15130;SDS011;7666;50.920;4.628;2022-10-31T05:25:29;10.43;;;9.30;;
15130;SDS011;7666;50.920;4.628;2022-10-31T05:28:15;14.00;;;10.70;;
15130;SDS011;7666;50.920;4.628;2022-10-31T05:31:01;11.93;;;9.40;;
15130;SDS011;7666;50.920;4.628;2022-10-31T05:33:48;10.70;;;8.70;;
15130;SDS011;7666;50.920;4.628;2022-10-31T05:36:33;9.67;;;8.30;;
15130;SDS011;7666;50.920;4.628;2022-10-31T05:39:19;9.57;;;7.87;;
15130;SDS011;7666;50.920;4.628;2022-10-31T05:42:05;8.10;;;6.90;;
15130;SDS011;7666;50.920;4.628;2022-10-31T05:44:51;8.47;;;7.00;;
15130;SDS011;7666;50.920;4.628;2022-10-31T05:47:37;8.73;;;5.87;;
15130;SDS011;7666;50.920;4.628;2022-10-31T05:50:24;7.37;;;5.47;;
15130;SDS011;7666;50.920;4.628;2022-10-31T05:53:10;6.37;;;5.40;;
15130;SDS011;7666;50.920;4.628;2022-10-31T05:55:56;8.70;;;6.87;;
15130;SDS011;7666;50.920;4.628;2022-10-31T05:58:42;11.90;;;6.33;;
15130;SDS011;7666;50.920;4.628;2022-10-31T06:01:28;6.53;;;5.67;;
15130;SDS011;7666;50.920;4.628;2022-10-31T06:04:14;6.57;;;5.33;;
15130;SDS011;7666;50.920;4.628;2022-10-31T06:07:00;6.80;;;5.30;;
15130;SDS011;7666;50.920;4.628;2022-10-31T06:09:46;6.23;;;5.40;;
15130;SDS011;7666;50.920;4.628;2022-10-31T06:12:32;6.83;;;5.73;;
15130;SDS011;7666;50.920;4.628;2022-10-31T06:15:22;9.03;;;6.53;;
15130;SDS011;7666;50.920;4.628;2022-10-31T06:18:08;7.13;;;5.90;;
15130;SDS011;7666;50.920;4.628;2022-10-31T06:20:54;7.17;;;6.20;;
15130;SDS011;7666;50.920;4.628;2022-10-31T06:23:40;8.27;;;6.77;;
15130;SDS011;7666;50.920;4.628;2022-10-31T06:26:26;7.13;;;6.33;;
15130;SDS011;7666;50.920;4.628;2022-10-31T06:29:12;9.10;;;6.43;;
15130;SDS011;7666;50.920;4.628;2022-10-31T06:31:58;9.17;;;6.53;;
15130;SDS011;7666;50.920;4.628;2022-10-31T06:34:44;7.33;;;5.90;;
15130;SDS011;7666;50.920;4.628;2022-10-31T06:37:33;8.60;;;6.83;;
15130;SDS011;7666;50.920;4.628;2022-10-31T06:40:19;6.60;;;5.37;;
15130;SDS011;7666;50.920;4.628;2022-10-31T06:43:05;7.60;;;5.33;;
15130;SDS011;7666;50.920;4.628;2022-10-31T06:45:51;8.67;;;6.47;;
15130;SDS011;7666;50.920;4.628;2022-10-31T06:48:37;8.33;;;6.30;;
15130;SDS011;7666;50.920;4.628;2022-10-31T06:51:23;12.70;;;8.50;;
15130;SDS011;7666;50.920;4.628;2022-10-31T06:54:08;9.10;;;8.00;;
15130;SDS011;7666;50.920;4.628;2022-10-31T06:56:54;12.60;;;8.17;;
15130;SDS011;7666;50.920;4.628;2022-10-31T06:59:40;11.77;;;8.37;;
15130;SDS011;7666;50.920;4.628;2022-10-31T07:02:26;11.27;;;8.23;;
15130;SDS011;7666;50.920;4.628;2022-10-31T07:05:12;10.83;;;8.17;;
15130;SDS011;7666;50.920;4.628;2022-10-31T07:07:59;11.13;;;8.17;;
15130;SDS011;7666;50.920;4.628;2022-10-31T07:10:50;12.77;;;8.97;;
15130;SDS011;7666;50.920;4.628;2022-10-31T07:13:40;15.60;;;11.17;;
15130;SDS011;7666;50.920;4.628;2022-10-31T07:16:26;16.20;;;12.47;;
15130;SDS011;7666;50.920;4.628;2022-10-31T07:19:12;17.03;;;12.47;;
15130;SDS011;7666;50.920;4.628;2022-10-31T07:21:58;15.07;;;11.10;;
15130;SDS011;7666;50.920;4.628;2022-10-31T07:24:44;13.47;;;10.43;;
15130;SDS011;7666;50.920;4.628;2022-10-31T07:27:40;14.87;;;10.70;;
15130;SDS011;7666;50.920;4.628;2022-10-31T07:30:27;16.40;;;12.77;;
15130;SDS011;7666;50.920;4.628;2022-10-31T07:33:13;17.70;;;13.83;;
15130;SDS011;7666;50.920;4.628;2022-10-31T07:35:59;20.47;;;15.10;;
15130;SDS011;7666;50.920;4.628;2022-10-31T07:38:45;19.47;;;15.63;;
15130;SDS011;7666;50.920;4.628;2022-10-31T07:41:31;20.77;;;14.20;;
15130;SDS011;7666;50.920;4.628;2022-10-31T07:44:17;18.13;;;14.23;;
15130;SDS011;7666;50.920;4.628;2022-10-31T07:47:03;19.53;;;15.17;;
15130;SDS011;7666;50.920;4.628;2022-10-31T07:49:49;20.93;;;15.70;;
15130;SDS011;7666;50.920;4.628;2022-10-31T07:52:35;24.53;;;17.53;;
15130;SDS011;7666;50.920;4.628;2022-10-31T07:55:21;21.53;;;16.47;;
15130;SDS011;7666;50.920;4.628;2022-10-31T07:58:08;21.43;;;16.67;;
15130;SDS011;7666;50.920;4.628;2022-10-31T08:00:57;20.90;;;16.57;;
15130;SDS011;7666;50.920;4.628;2022-10-31T08:03:43;20.10;;;16.50;;
15130;SDS011;7666;50.920;4.628;2022-10-31T08:06:29;23.07;;;15.93;;
15130;SDS011;7666;50.920;4.628;2022-10-31T08:09:15;20.90;;;15.90;;
15130;SDS011;7666;50.920;4.628;2022-10-31T08:12:01;17.80;;;15.77;;
15130;SDS011;7666;50.920;4.628;2022-10-31T08:14:47;24.27;;;18.27;;
15130;SDS011;7666;50.920;4.628;2022-10-31T08:17:36;19.67;;;17.47;;
15130;SDS011;7666;50.920;4.628;2022-10-31T08:20:22;26.80;;;18.93;;
15130;SDS011;7666;50.920;4.628;2022-10-31T08:23:09;22.60;;;17.57;;
15130;SDS011;7666;50.920;4.628;2022-10-31T08:25:57;21.07;;;17.43;;
15130;SDS011;7666;50.920;4.628;2022-10-31T08:28:43;20.23;;;15.50;;
15130;SDS011;7666;50.920;4.628;2022-10-31T08:31:29;21.60;;;15.23;;
15130;SDS011;7666;50.920;4.628;2022-10-31T08:34:15;21.43;;;16.67;;
15130;SDS011;7666;50.920;4.628;2022-10-31T08:37:01;21.93;;;16.33;;
15130;SDS011;7666;50.920;4.628;2022-10-31T08:39:47;20.57;;;15.83;;
15130;SDS011;7666;50.920;4.628;2022-10-31T08:42:33;23.73;;;16.80;;
15130;SDS011;7666;50.920;4.628;2022-10-31T08:45:19;23.50;;;17.40;;
15130;SDS011;7666;50.920;4.628;2022-10-31T08:48:06;22.80;;;16.57;;
15130;SDS011;7666;50.920;4.628;2022-10-31T08:50:56;21.57;;;16.50;;
15130;SDS011;7666;50.920;4.628;2022-10-31T08:53:45;22.83;;;17.17;;
15130;SDS011;7666;50.920;4.628;2022-10-31T08:56:31;20.87;;;15.73;;
15130;SDS011;7666;50.920;4.628;2022-10-31T08:59:17;22.83;;;15.77;;
15130;SDS011;7666;50.920;4.628;2022-10-31T09:02:03;22.80;;;17.10;;
15130;SDS011;7666;50.920;4.628;2022-10-31T09:04:49;23.33;;;17.50;;
15130;SDS011;7666;50.920;4.628;2022-10-31T09:07:35;23.13;;;18.33;;
15130;SDS011;7666;50.920;4.628;2022-10-31T09:10:21;23.83;;;17.50;;
15130;SDS011;7666;50.920;4.628;2022-10-31T09:13:11;27.30;;;18.27;;
15130;SDS011;7666;50.920;4.628;2022-10-31T09:15:58;21.33;;;16.63;;
15130;SDS011;7666;50.920;4.628;2022-10-31T09:18:44;17.67;;;15.80;;
15130;SDS011;7666;50.920;4.628;2022-10-31T09:21:30;17.43;;;15.60;;
15130;SDS011;7666;50.920;4.628;2022-10-31T09:24:16;21.03;;;15.33;;
15130;SDS011;7666;50.920;4.628;2022-10-31T09:27:02;19.93;;;16.30;;
15130;SDS011;7666;50.920;4.628;2022-10-31T09:29:48;22.33;;;16.97;;
15130;SDS011;7666;50.920;4.628;2022-10-31T09:32:35;20.90;;;16.23;;
15130;SDS011;7666;50.920;4.628;2022-10-31T09:35:21;18.10;;;14.37;;
15130;SDS011;7666;50.920;4.628;2022-10-31T09:38:11;17.77;;;14.90;;
15130;SDS011;7666;50.920;4.628;2022-10-31T09:41:05;20.73;;;15.27;;
15130;SDS011;7666;50.920;4.628;2022-10-31T09:44:09;18.13;;;15.17;;
15130;SDS011;7666;50.920;4.628;2022-10-31T09:47:16;18.27;;;14.27;;
15130;SDS011;7666;50.920;4.628;2022-10-31T09:51:05;17.50;;;14.10;;
15130;SDS011;7666;50.920;4.628;2022-10-31T09:56:39;20.90;;;16.07;;
15130;SDS011;7666;50.920;4.628;2022-10-31T09:59:28;21.00;;;15.93;;
15130;SDS011;7666;50.920;4.628;2022-10-31T10:05:24;21.53;;;16.70;;
15130;SDS011;7666;50.920;4.628;2022-10-31T10:08:32;20.80;;;16.60;;
15130;SDS011;7666;50.920;4.628;2022-10-31T10:14:53;24.50;;;17.27;;
15130;SDS011;7666;50.920;4.628;2022-10-31T10:29:50;26.07;;;18.53;;
15130;SDS011;7666;50.920;4.628;2022-10-31T10:32:57;25.70;;;19.03;;
15130;SDS011;7666;50.920;4.628;2022-10-31T10:35:58;25.37;;;17.17;;
15130;SDS011;7666;50.920;4.628;2022-10-31T10:41:38;23.27;;;18.47;;
15130;SDS011;7666;50.920;4.628;2022-10-31T10:44:29;28.27;;;19.53;;
15130;SDS011;7666;50.920;4.628;2022-10-31T10:47:43;24.67;;;18.23;;
15130;SDS011;7666;50.920;4.628;2022-10-31T10:50:35;23.93;;;18.20;;
15130;SDS011;7666;50.920;4.628;2022-10-31T10:53:33;21.60;;;18.47;;
15130;SDS011;7666;50.920;4.628;2022-10-31T10:56:54;22.83;;;18.53;;
15130;SDS011;7666;50.920;4.628;2022-10-31T10:59:59;25.30;;;18.77;;
15130;SDS011;7666;50.920;4.628;2022-10-31T11:02:49;26.83;;;19.57;;
15130;SDS011;7666;50.920;4.628;2022-10-31T11:05:37;26.23;;;18.53;;
15130;SDS011;7666;50.920;4.628;2022-10-31T11:08:46;25.33;;;18.77;;
15130;SDS011;7666;50.920;4.628;2022-10-31T11:11:32;22.67;;;17.57;;
15130;SDS011;7666;50.920;4.628;2022-10-31T11:14:18;27.70;;;17.47;;
15130;SDS011;7666;50.920;4.628;2022-10-31T11:17:28;22.33;;;13.97;;
15130;SDS011;7666;50.920;4.628;2022-10-31T11:23:25;19.33;;;13.13;;
15130;SDS011;7666;50.920;4.628;2022-10-31T11:26:18;16.07;;;10.87;;
15130;SDS011;7666;50.920;4.628;2022-10-31T11:29:12;16.47;;;10.87;;
15130;SDS011;7666;50.920;4.628;2022-10-31T11:32:15;18.10;;;11.40;;
15130;SDS011;7666;50.920;4.628;2022-10-31T11:35:09;15.47;;;9.87;;
15130;SDS011;7666;50.920;4.628;2022-10-31T11:37:59;15.33;;;9.20;;
15130;SDS011;7666;50.920;4.628;2022-10-31T11:40:59;17.17;;;10.13;;
15130;SDS011;7666;50.920;4.628;2022-10-31T11:43:53;17.03;;;9.80;;
15130;SDS011;7666;50.920;4.628;2022-10-31T11:46:48;15.33;;;8.90;;
15130;SDS011;7666;50.920;4.628;2022-10-31T11:49:39;17.37;;;9.03;;
15130;SDS011;7666;50.920;4.628;2022-10-31T11:52:30;10.07;;;8.13;;
15130;SDS011;7666;50.920;4.628;2022-10-31T11:55:29;16.77;;;8.40;;
15130;SDS011;7666;50.920;4.628;2022-10-31T11:58:21;12.63;;;8.60;;
15130;SDS011;7666;50.920;4.628;2022-10-31T12:01:24;14.70;;;8.07;;
15130;SDS011;7666;50.920;4.628;2022-10-31T12:04:14;17.40;;;9.03;;
15130;SDS011;7666;50.920;4.628;2022-10-31T12:07:02;11.93;;;8.07;;
15130;SDS011;7666;50.920;4.628;2022-10-31T12:09:48;13.80;;;8.33;;
15130;SDS011;7666;50.920;4.628;2022-10-31T12:12:36;16.10;;;7.90;;
15130;SDS011;7666;50.920;4.628;2022-10-31T12:15:33;12.67;;;8.03;;
15130;SDS011;7666;50.920;4.628;2022-10-31T12:18:24;14.17;;;7.87;;
15130;SDS011;7666;50.920;4.628;2022-10-31T12:27:48;13.70;;;8.27;;
15130;SDS011;7666;50.920;4.628;2022-10-31T12:30:49;14.43;;;8.03;;
15130;SDS011;7666;50.920;4.628;2022-10-31T12:39:59;15.30;;;8.03;;
15130;SDS011;7666;50.920;4.628;2022-10-31T12:45:54;10.80;;;7.00;;
15130;SDS011;7666;50.920;4.628;2022-10-31T12:49:33;15.17;;;8.30;;
15130;SDS011;7666;50.920;4.628;2022-10-31T12:57:58;15.97;;;7.93;;
15130;SDS011;7666;50.920;4.628;2022-10-31T13:01:38;11.60;;;7.80;;
15130;SDS011;7666;50.920;4.628;2022-10-31T13:07:19;16.17;;;8.03;;
15130;SDS011;7666;50.920;4.628;2022-10-31T13:13:11;24.10;;;8.17;;
15130;SDS011;7666;50.920;4.628;2022-10-31T13:16:04;14.53;;;7.43;;
15130;SDS011;7666;50.920;4.628;2022-10-31T13:19:21;13.80;;;7.83;;
15130;SDS011;7666;50.920;4.628;2022-10-31T13:22:30;19.57;;;8.87;;
15130;SDS011;7666;50.920;4.628;2022-10-31T13:25:28;10.90;;;7.53;;
15130;SDS011;7666;50.920;4.628;2022-10-31T13:31:20;15.13;;;7.33;;
15130;SDS011;7666;50.920;4.628;2022-10-31T13:34:09;17.97;;;7.77;;
15130;SDS011;7666;50.920;4.628;2022-10-31T13:37:28;22.37;;;8.20;;
15130;SDS011;7666;50.920;4.628;2022-10-31T13:40:39;10.77;;;5.03;;
15130;SDS011;7666;50.920;4.628;2022-10-31T13:46:38;10.60;;;4.80;;
15130;SDS011;7666;50.920;4.628;2022-10-31T13:52:16;13.37;;;6.67;;
15130;SDS011;7666;50.920;4.628;2022-10-31T13:58:26;12.07;;;6.20;;
15130;SDS011;7666;50.920;4.628;2022-10-31T14:01:19;12.07;;;5.53;;
15130;SDS011;7666;50.920;4.628;2022-10-31T14:04:08;10.83;;;5.90;;
15130;SDS011;7666;50.920;4.628;2022-10-31T14:10:01;12.53;;;6.83;;
15130;SDS011;7666;50.920;4.628;2022-10-31T14:16:29;14.63;;;7.00;;
15130;SDS011;7666;50.920;4.628;2022-10-31T14:19:17;13.90;;;6.37;;
15130;SDS011;7666;50.920;4.628;2022-10-31T14:22:18;12.30;;;7.00;;
15130;SDS011;7666;50.920;4.628;2022-10-31T14:28:20;13.30;;;7.23;;
15130;SDS011;7666;50.920;4.628;2022-10-31T14:31:35;13.37;;;7.70;;
15130;SDS011;7666;50.920;4.628;2022-10-31T14:40:42;13.40;;;7.50;;
15130;SDS011;7666;50.920;4.628;2022-10-31T14:53:09;24.00;;;10.10;;
15130;SDS011;7666;50.920;4.628;2022-10-31T14:55:59;16.27;;;8.90;;
15130;SDS011;7666;50.920;4.628;2022-10-31T14:58:46;18.53;;;9.40;;
15130;SDS011;7666;50.920;4.628;2022-10-31T15:01:34;17.43;;;9.47;;
15130;SDS011;7666;50.920;4.628;2022-10-31T15:04:25;13.30;;;9.63;;
15130;SDS011;7666;50.920;4.628;2022-10-31T15:07:19;17.47;;;9.30;;
15130;SDS011;7666;50.920;4.628;2022-10-31T15:10:32;16.90;;;9.30;;
15130;SDS011;7666;50.920;4.628;2022-10-31T15:13:22;15.73;;;9.50;;
15130;SDS011;7666;50.920;4.628;2022-10-31T15:16:08;19.53;;;9.87;;
15130;SDS011;7666;50.920;4.628;2022-10-31T15:19:02;18.00;;;10.87;;
15130;SDS011;7666;50.920;4.628;2022-10-31T15:21:51;14.33;;;9.50;;
15130;SDS011;7666;50.920;4.628;2022-10-31T15:24:39;17.13;;;9.53;;
15130;SDS011;7666;50.920;4.628;2022-10-31T15:27:25;16.93;;;10.27;;
15130;SDS011;7666;50.920;4.628;2022-10-31T15:30:19;20.07;;;10.73;;
15130;SDS011;7666;50.920;4.628;2022-10-31T15:33:18;21.03;;;10.40;;
15130;SDS011;7666;50.920;4.628;2022-10-31T15:36:16;18.60;;;10.90;;
15130;SDS011;7666;50.920;4.628;2022-10-31T15:39:10;17.13;;;11.53;;
15130;SDS011;7666;50.920;4.628;2022-10-31T15:41:57;16.03;;;11.03;;
15130;SDS011;7666;50.920;4.628;2022-10-31T15:44:44;19.20;;;10.77;;
15130;SDS011;7666;50.920;4.628;2022-10-31T15:48:12;15.07;;;11.17;;
15130;SDS011;7666;50.920;4.628;2022-10-31T15:51:03;18.57;;;11.47;;
15130;SDS011;7666;50.920;4.628;2022-10-31T15:53:50;15.93;;;11.90;;
15130;SDS011;7666;50.920;4.628;2022-10-31T15:56:38;16.23;;;11.47;;
15130;SDS011;7666;50.920;4.628;2022-10-31T15:59:25;20.03;;;12.13;;
15130;SDS011;7666;50.920;4.628;2022-10-31T16:02:13;20.00;;;11.43;;
15130;SDS011;7666;50.920;4.628;2022-10-31T16:05:00;19.30;;;11.03;;
15130;SDS011;7666;50.920;4.628;2022-10-31T16:07:50;19.27;;;12.07;;
15130;SDS011;7666;50.920;4.628;2022-10-31T16:10:37;18.10;;;11.77;;
15130;SDS011;7666;50.920;4.628;2022-10-31T16:13:25;16.47;;;11.40;;
15130;SDS011;7666;50.920;4.628;2022-10-31T16:16:16;18.10;;;11.60;;
15130;SDS011;7666;50.920;4.628;2022-10-31T16:19:03;20.17;;;12.60;;
15130;SDS011;7666;50.920;4.628;2022-10-31T16:21:54;22.73;;;12.73;;
15130;SDS011;7666;50.920;4.628;2022-10-31T16:24:54;19.87;;;12.87;;
15130;SDS011;7666;50.920;4.628;2022-10-31T16:27:59;18.03;;;12.10;;
15130;SDS011;7666;50.920;4.628;2022-10-31T16:30:50;18.30;;;12.90;;
15130;SDS011;7666;50.920;4.628;2022-10-31T16:33:40;19.13;;;11.30;;
15130;SDS011;7666;50.920;4.628;2022-10-31T16:36:30;15.97;;;10.90;;
15130;SDS011;7666;50.920;4.628;2022-10-31T16:39:18;17.20;;;11.03;;
15130;SDS011;7666;50.920;4.628;2022-10-31T16:42:04;17.87;;;11.23;;
15130;SDS011;7666;50.920;4.628;2022-10-31T16:44:50;18.23;;;12.33;;
15130;SDS011;7666;50.920;4.628;2022-10-31T16:47:36;16.37;;;9.80;;
15130;SDS011;7666;50.920;4.628;2022-10-31T16:50:23;17.93;;;9.87;;
15130;SDS011;7666;50.920;4.628;2022-10-31T16:53:10;15.43;;;9.87;;
15130;SDS011;7666;50.920;4.628;2022-10-31T16:55:57;17.13;;;9.00;;
15130;SDS011;7666;50.920;4.628;2022-10-31T16:58:44;18.87;;;8.90;;
15130;SDS011;7666;50.920;4.628;2022-10-31T17:01:30;12.13;;;7.70;;
15130;SDS011;7666;50.920;4.628;2022-10-31T17:04:17;9.67;;;6.47;;
15130;SDS011;7666;50.920;4.628;2022-10-31T17:07:02;14.20;;;6.47;;
15130;SDS011;7666;50.920;4.628;2022-10-31T17:09:48;13.13;;;5.80;;
15130;SDS011;7666;50.920;4.628;2022-10-31T17:12:34;11.97;;;6.00;;
15130;SDS011;7666;50.920;4.628;2022-10-31T17:15:23;9.67;;;6.03;;
15130;SDS011;7666;50.920;4.628;2022-10-31T17:18:11;12.80;;;6.50;;
15130;SDS011;7666;50.920;4.628;2022-10-31T17:20:59;9.63;;;5.33;;
15130;SDS011;7666;50.920;4.628;2022-10-31T17:23:46;11.07;;;6.00;;
15130;SDS011;7666;50.920;4.628;2022-10-31T17:26:33;12.83;;;5.83;;
15130;SDS011;7666;50.920;4.628;2022-10-31T17:29:18;16.80;;;6.17;;
15130;SDS011;7666;50.920;4.628;2022-10-31T17:32:04;10.97;;;6.23;;
15130;SDS011;7666;50.920;4.628;2022-10-31T17:34:50;9.90;;;4.77;;
15130;SDS011;7666;50.920;4.628;2022-10-31T17:37:36;12.77;;;5.70;;
15130;SDS011;7666;50.920;4.628;2022-10-31T17:40:23;10.37;;;5.13;;
15130;SDS011;7666;50.920;4.628;2022-10-31T17:43:09;11.83;;;5.10;;
15130;SDS011;7666;50.920;4.628;2022-10-31T17:45:58;11.07;;;5.27;;
15130;SDS011;7666;50.920;4.628;2022-10-31T17:48:45;13.27;;;5.10;;
15130;SDS011;7666;50.920;4.628;2022-10-31T17:51:31;8.93;;;4.27;;
15130;SDS011;7666;50.920;4.628;2022-10-31T17:54:17;11.90;;;4.83;;
15130;SDS011;7666;50.920;4.628;2022-10-31T17:57:06;12.40;;;4.87;;
15130;SDS011;7666;50.920;4.628;2022-10-31T17:59:52;9.70;;;4.63;;
15130;SDS011;7666;50.920;4.628;2022-10-31T18:02:38;11.10;;;4.70;;
15130;SDS011;7666;50.920;4.628;2022-10-31T18:05:24;10.03;;;4.73;;
15130;SDS011;7666;50.920;4.628;2022-10-31T18:08:10;11.53;;;5.33;;
15130;SDS011;7666;50.920;4.628;2022-10-31T18:10:56;10.97;;;5.10;;
15130;SDS011;7666;50.920;4.628;2022-10-31T18:13:46;9.70;;;4.63;;
15130;SDS011;7666;50.920;4.628;2022-10-31T18:16:32;9.57;;;4.70;;
15130;SDS011;7666;50.920;4.628;2022-10-31T18:19:18;11.17;;;5.43;;
15130;SDS011;7666;50.920;4.628;2022-10-31T18:22:04;10.90;;;5.03;;
15130;SDS011;7666;50.920;4.628;2022-10-31T18:24:49;8.33;;;4.23;;
15130;SDS011;7666;50.920;4.628;2022-10-31T18:27:35;10.00;;;4.80;;
15130;SDS011;7666;50.920;4.628;2022-10-31T18:30:21;16.27;;;5.07;;
15130;SDS011;7666;50.920;4.628;2022-10-31T18:33:07;13.00;;;4.87;;
15130;SDS011;7666;50.920;4.628;2022-10-31T18:35:54;14.40;;;4.90;;
15130;SDS011;7666;50.920;4.628;2022-10-31T18:38:40;13.03;;;4.93;;
15130;SDS011;7666;50.920;4.628;2022-10-31T18:41:29;14.10;;;5.17;;
15130;SDS011;7666;50.920;4.628;2022-10-31T18:44:15;8.93;;;4.93;;
15130;SDS011;7666;50.920;4.628;2022-10-31T18:47:01;8.63;;;5.27;;
15130;SDS011;7666;50.920;4.628;2022-10-31T18:49:46;6.17;;;4.60;;
15130;SDS011;7666;50.920;4.628;2022-10-31T18:52:32;10.63;;;4.80;;
15130;SDS011;7666;50.920;4.628;2022-10-31T18:55:18;8.90;;;4.80;;
15130;SDS011;7666;50.920;4.628;2022-10-31T18:58:04;14.57;;;5.30;;
15130;SDS011;7666;50.920;4.628;2022-10-31T19:00:50;10.67;;;5.20;;
15130;SDS011;7666;50.920;4.628;2022-10-31T19:03:37;12.27;;;5.10;;
15130;SDS011;7666;50.920;4.628;2022-10-31T19:06:24;13.73;;;6.03;;
15130;SDS011;7666;50.920;4.628;2022-10-31T19:09:10;11.80;;;5.00;;